sensor_id;sensor_type;location;lat;lon;timestamp;pressure;altitude;pressure_sealevel;temperature;humidity
52651;BME280;38537;47.226;39.702;2023-01-04T00:01:30;100831.78;;;7.84;74.54
52651;BME280;38537;47.226;39.702;2023-01-04T00:03:58;100831.50;;;7.80;74.20
52651;BME280;38537;47.226;39.702;2023-01-04T00:06:26;100807.34;;;7.61;74.35
52651;BME280;38537;47.226;39.702;2023-01-04T00:08:53;100835.13;;;7.81;74.44
52651;BME280;38537;47.226;39.702;2023-01-04T00:11:23;100825.69;;;7.77;74.37
52651;BME280;38537;47.226;39.702;2023-01-04T00:13:52;100830.69;;;7.80;74.56
52651;BME280;38537;47.226;39.702;2023-01-04T00:16:23;100832.94;;;7.78;74.85
52651;BME280;38537;47.226;39.702;2023-01-04T00:18:53;100823.47;;;7.69;74.84
52651;BME280;38537;47.226;39.702;2023-01-04T00:21:27;100831.81;;;7.79;74.88
52651;BME280;38537;47.226;39.702;2023-01-04T00:23:58;100825.97;;;7.70;74.67
52651;BME280;38537;47.226;39.702;2023-01-04T00:26:31;100829.56;;;7.66;74.90
52651;BME280;38537;47.226;39.702;2023-01-04T00:29:04;100837.91;;;7.71;74.94
52651;BME280;38537;47.226;39.702;2023-01-04T00:31:32;100810.41;;;7.54;75.08
52651;BME280;38537;47.226;39.702;2023-01-04T00:34:02;100832.91;;;7.68;75.30
52651;BME280;38537;47.226;39.702;2023-01-04T00:36:31;100831.25;;;7.67;75.05
52651;BME280;38537;47.226;39.702;2023-01-04T00:39:00;100839.59;;;7.72;74.94
52651;BME280;38537;47.226;39.702;2023-01-04T00:41:43;100829.03;;;7.69;75.33
52651;BME280;38537;47.226;39.702;2023-01-04T00:44:28;100829.03;;;7.74;74.89
52651;BME280;38537;47.226;39.702;2023-01-04T00:46:57;100841.81;;;7.75;74.75
52651;BME280;38537;47.226;39.702;2023-01-04T00:49:25;100852.91;;;7.80;75.24
52651;BME280;38537;47.226;39.702;2023-01-04T00:51:54;100847.91;;;7.82;75.05
52651;BME280;38537;47.226;39.702;2023-01-04T00:54:22;100859.59;;;7.94;74.78
52651;BME280;38537;47.226;39.702;2023-01-04T00:56:49;100824.84;;;7.81;75.01
52651;BME280;38537;47.226;39.702;2023-01-04T00:59:19;100845.69;;;7.89;74.58
52651;BME280;38537;47.226;39.702;2023-01-04T01:01:47;100843.19;;;7.93;74.44
52651;BME280;38537;47.226;39.702;2023-01-04T01:04:17;100841.22;;;8.03;74.89
52651;BME280;38537;47.226;39.702;2023-01-04T01:06:45;100839.31;;;7.99;74.52
52651;BME280;38537;47.226;39.702;2023-01-04T01:09:12;100837.34;;;7.89;74.57
52651;BME280;38537;47.226;39.702;2023-01-04T01:11:40;100842.38;;;7.87;74.69
52651;BME280;38537;47.226;39.702;2023-01-04T01:14:14;100837.38;;;7.79;75.22
52651;BME280;38537;47.226;39.702;2023-01-04T01:16:42;100823.19;;;7.65;74.98
52651;BME280;38537;47.226;39.702;2023-01-04T01:19:23;100824.31;;;7.69;75.02
52651;BME280;38537;47.226;39.702;2023-01-04T01:21:52;100838.22;;;7.74;75.46
52651;BME280;38537;47.226;39.702;2023-01-04T01:24:20;100840.44;;;7.72;75.37
52651;BME280;38537;47.226;39.702;2023-01-04T01:26:47;100832.09;;;7.67;75.72
52651;BME280;38537;47.226;39.702;2023-01-04T01:29:15;100840.69;;;7.81;75.51
52651;BME280;38537;47.226;39.702;2023-01-04T01:31:42;100827.38;;;7.78;75.62
52651;BME280;38537;47.226;39.702;2023-01-04T01:34:10;100845.44;;;7.90;75.43
52651;BME280;38537;47.226;39.702;2023-01-04T01:36:37;100831.25;;;7.77;75.11
52651;BME280;38537;47.226;39.702;2023-01-04T01:39:05;100830.41;;;7.71;75.06
52651;BME280;38537;47.226;39.702;2023-01-04T01:41:34;100847.91;;;7.82;75.46
52651;BME280;38537;47.226;39.702;2023-01-04T01:46:53;100840.69;;;7.96;75.36
52651;BME280;38537;47.226;39.702;2023-01-04T01:49:30;100831.78;;;8.09;75.26
52651;BME280;38537;47.226;39.702;2023-01-04T01:52:03;100843.41;;;8.32;74.80
52651;BME280;38537;47.226;39.702;2023-01-04T01:54:45;100839.53;;;8.43;74.75
52651;BME280;38537;47.226;39.702;2023-01-04T01:57:20;100835.66;;;8.44;74.04
52651;BME280;38537;47.226;39.702;2023-01-04T01:59:50;100835.06;;;8.47;73.63
52651;BME280;38537;47.226;39.702;2023-01-04T02:02:19;100830.06;;;8.29;73.60
52651;BME280;38537;47.226;39.702;2023-01-04T02:04:49;100835.34;;;8.30;73.60
52651;BME280;38537;47.226;39.702;2023-01-04T02:07:21;100829.22;;;8.23;73.85
52651;BME280;38537;47.226;39.702;2023-01-04T02:09:50;100815.38;;;8.08;74.05
52651;BME280;38537;47.226;39.702;2023-01-04T02:12:17;100815.03;;;8.30;73.96
52651;BME280;38537;47.226;39.702;2023-01-04T02:14:46;100831.72;;;8.50;73.38
52651;BME280;38537;47.226;39.702;2023-01-04T02:23:36;100830.97;;;8.99;72.09
52651;BME280;38537;47.226;39.702;2023-01-04T02:32:13;100833.56;;;8.80;72.23
52651;BME280;38537;47.226;39.702;2023-01-04T02:34:58;100829.47;;;8.57;72.15
52651;BME280;38537;47.226;39.702;2023-01-04T02:41:02;100832.88;;;8.34;73.29
52651;BME280;38537;47.226;39.702;2023-01-04T02:43:55;100831.75;;;8.24;73.63
52651;BME280;38537;47.226;39.702;2023-01-04T02:46:46;100821.19;;;8.01;73.38
52651;BME280;38537;47.226;39.702;2023-01-04T02:49:14;100828.75;;;7.96;73.74
52651;BME280;38537;47.226;39.702;2023-01-04T02:52:00;100813.72;;;7.86;73.83
52651;BME280;38537;47.226;39.702;2023-01-04T02:54:29;100827.91;;;7.90;74.02
52651;BME280;38537;47.226;39.702;2023-01-04T02:59:49;100842.91;;;7.89;74.24
52651;BME280;38537;47.226;39.702;2023-01-04T03:08:46;100843.16;;;8.23;74.92
52651;BME280;38537;47.226;39.702;2023-01-04T03:11:16;100843.44;;;8.11;73.68
52651;BME280;38537;47.226;39.702;2023-01-04T03:14:09;100845.69;;;8.09;73.86
52651;BME280;38537;47.226;39.702;2023-01-04T03:17:01;100839.03;;;8.00;73.54
52651;BME280;38537;47.226;39.702;2023-01-04T03:19:30;100845.13;;;8.12;73.74
52651;BME280;38537;47.226;39.702;2023-01-04T03:25:39;100842.91;;;8.19;73.60
52651;BME280;38537;47.226;39.702;2023-01-04T03:28:30;100843.72;;;8.15;73.34
52651;BME280;38537;47.226;39.702;2023-01-04T03:31:32;100848.75;;;8.18;73.97
52651;BME280;38537;47.226;39.702;2023-01-04T03:34:20;100830.41;;;7.97;73.40
52651;BME280;38537;47.226;39.702;2023-01-04T03:42:52;100840.69;;;7.91;74.04
52651;BME280;38537;47.226;39.702;2023-01-04T03:45:54;100842.94;;;7.79;74.36
52651;BME280;38537;47.226;39.702;2023-01-04T03:51:23;100841.81;;;7.70;74.78
52651;BME280;38537;47.226;39.702;2023-01-04T03:54:13;100847.09;;;7.76;74.76
52651;BME280;38537;47.226;39.702;2023-01-04T03:56:44;100831.81;;;7.74;74.62
52651;BME280;38537;47.226;39.702;2023-01-04T03:59:12;100827.63;;;7.71;74.68
52651;BME280;38537;47.226;39.702;2023-01-04T04:01:42;100835.16;;;7.76;75.27
52651;BME280;38537;47.226;39.702;2023-01-04T04:04:10;100834.31;;;7.65;74.88
52651;BME280;38537;47.226;39.702;2023-01-04T04:06:56;100840.69;;;7.71;74.84
52651;BME280;38537;47.226;39.702;2023-01-04T04:09:42;100837.63;;;7.82;75.24
52651;BME280;38537;47.226;39.702;2023-01-04T04:12:09;100836.81;;;7.77;75.11
52651;BME280;38537;47.226;39.702;2023-01-04T04:14:37;100834.88;;;7.77;74.68
52651;BME280;38537;47.226;39.702;2023-01-04T04:17:04;100831.25;;;7.72;74.72
52651;BME280;38537;47.226;39.702;2023-01-04T04:19:31;100842.34;;;7.82;74.40
52651;BME280;38537;47.226;39.702;2023-01-04T04:21:59;100837.63;;;7.87;74.24
52651;BME280;38537;47.226;39.702;2023-01-04T04:24:26;100850.16;;;8.00;73.73
52651;BME280;38537;47.226;39.702;2023-01-04T04:26:54;100850.41;;;8.04;73.81
52651;BME280;38537;47.226;39.702;2023-01-04T04:29:22;100847.66;;;7.99;73.60
52651;BME280;38537;47.226;39.702;2023-01-04T04:31:50;100840.69;;;7.91;73.75
52651;BME280;38537;47.226;39.702;2023-01-04T04:34:17;100840.69;;;7.86;73.52
52651;BME280;38537;47.226;39.702;2023-01-04T04:36:45;100840.66;;;8.01;73.80
52651;BME280;38537;47.226;39.702;2023-01-04T04:39:13;100848.19;;;7.90;73.50
52651;BME280;38537;47.226;39.702;2023-01-04T04:41:40;100814.03;;;7.70;73.69
52651;BME280;38537;47.226;39.702;2023-01-04T04:44:10;100831.81;;;7.74;74.09
52651;BME280;38537;47.226;39.702;2023-01-04T04:46:38;100828.75;;;7.75;73.98
52651;BME280;38537;47.226;39.702;2023-01-04T04:49:05;100845.16;;;7.77;73.85
52651;BME280;38537;47.226;39.702;2023-01-04T04:51:33;100837.38;;;7.79;74.02
52651;BME280;38537;47.226;39.702;2023-01-04T04:54:01;100842.91;;;7.89;74.13
52651;BME280;38537;47.226;39.702;2023-01-04T04:56:45;100846.81;;;7.93;73.93
52651;BME280;38537;47.226;39.702;2023-01-04T04:59:18;100852.66;;;7.91;73.79
52651;BME280;38537;47.226;39.702;2023-01-04T05:01:48;100832.63;;;7.69;73.97
52651;BME280;38537;47.226;39.702;2023-01-04T05:04:16;100829.84;;;7.69;74.13
52651;BME280;38537;47.226;39.702;2023-01-04T05:06:47;100854.31;;;7.72;74.16
52651;BME280;38537;47.226;39.702;2023-01-04T05:09:15;100821.25;;;7.50;74.10
52651;BME280;38537;47.226;39.702;2023-01-04T05:11:42;100854.88;;;7.69;74.83
52651;BME280;38537;47.226;39.702;2023-01-04T05:14:28;100851.25;;;7.58;74.24
52651;BME280;38537;47.226;39.702;2023-01-04T05:16:55;100845.13;;;7.62;74.53
52651;BME280;38537;47.226;39.702;2023-01-04T05:19:23;100854.03;;;7.48;74.70
52651;BME280;38537;47.226;39.702;2023-01-04T05:21:50;100866.00;;;7.54;74.59
52651;BME280;38537;47.226;39.702;2023-01-04T05:24:17;100857.63;;;7.44;74.73
52651;BME280;38537;47.226;39.702;2023-01-04T05:26:45;100858.72;;;7.43;74.86
52651;BME280;38537;47.226;39.702;2023-01-04T05:29:13;100855.09;;;7.37;74.88
52651;BME280;38537;47.226;39.702;2023-01-04T05:32:00;100840.69;;;7.35;75.02
52651;BME280;38537;47.226;39.702;2023-01-04T05:34:27;100864.56;;;7.41;75.12
52651;BME280;38537;47.226;39.702;2023-01-04T05:36:54;100854.25;;;7.37;75.20
52651;BME280;38537;47.226;39.702;2023-01-04T05:39:21;100864.31;;;7.53;75.38
52651;BME280;38537;47.226;39.702;2023-01-04T05:41:48;100864.88;;;7.70;75.03
52651;BME280;38537;47.226;39.702;2023-01-04T05:44:34;100855.72;;;7.75;74.54
52651;BME280;38537;47.226;39.702;2023-01-04T05:47:01;100844.03;;;7.63;74.43
52651;BME280;38537;47.226;39.702;2023-01-04T05:49:29;100857.66;;;7.79;74.30
52651;BME280;38537;47.226;39.702;2023-01-04T05:51:56;100859.88;;;7.82;74.44
52651;BME280;38537;47.226;39.702;2023-01-04T05:54:24;100849.84;;;7.81;74.04
52651;BME280;38537;47.226;39.702;2023-01-04T05:56:51;100857.38;;;7.81;74.09
52651;BME280;38537;47.226;39.702;2023-01-04T05:59:18;100863.22;;;7.79;73.94
52651;BME280;38537;47.226;39.702;2023-01-04T06:01:46;100866.81;;;7.65;74.45
52651;BME280;38537;47.226;39.702;2023-01-04T06:04:13;100875.75;;;7.77;74.90
52651;BME280;38537;47.226;39.702;2023-01-04T06:06:41;100857.38;;;7.76;74.46
52651;BME280;38537;47.226;39.702;2023-01-04T06:09:08;100856.84;;;7.79;74.16
52651;BME280;38537;47.226;39.702;2023-01-04T06:11:35;100873.78;;;7.87;74.40
52651;BME280;38537;47.226;39.702;2023-01-04T06:14:03;100883.22;;;7.86;74.28
52651;BME280;38537;47.226;39.702;2023-01-04T06:16:30;100877.66;;;7.71;74.20
52651;BME280;38537;47.226;39.702;2023-01-04T06:18:58;100889.38;;;7.78;74.36
52651;BME280;38537;47.226;39.702;2023-01-04T06:21:25;100877.94;;;7.65;74.60
52651;BME280;38537;47.226;39.702;2023-01-04T06:23:53;100882.38;;;7.66;74.61
52651;BME280;38537;47.226;39.702;2023-01-04T06:26:20;100877.66;;;7.61;74.54
52651;BME280;38537;47.226;39.702;2023-01-04T06:28:47;100876.81;;;7.61;74.47
52651;BME280;38537;47.226;39.702;2023-01-04T06:31:14;100877.38;;;7.57;74.67
52651;BME280;38537;47.226;39.702;2023-01-04T06:33:42;100882.38;;;7.61;74.49
52651;BME280;38537;47.226;39.702;2023-01-04T06:36:09;100855.41;;;7.46;74.44
52651;BME280;38537;47.226;39.702;2023-01-04T06:38:46;100867.91;;;7.58;74.67
52651;BME280;38537;47.226;39.702;2023-01-04T06:41:14;100869.59;;;7.54;74.41
52651;BME280;38537;47.226;39.702;2023-01-04T06:43:41;100879.34;;;7.67;74.62
52651;BME280;38537;47.226;39.702;2023-01-04T06:46:08;100876.56;;;7.57;74.15
52651;BME280;38537;47.226;39.702;2023-01-04T06:48:36;100868.75;;;7.49;74.43
52651;BME280;38537;47.226;39.702;2023-01-04T06:51:03;100886.81;;;7.62;74.71
52651;BME280;38537;47.226;39.702;2023-01-04T06:53:30;100877.94;;;7.65;74.62
52651;BME280;38537;47.226;39.702;2023-01-04T06:55:58;100862.38;;;7.64;74.47
52651;BME280;38537;47.226;39.702;2023-01-04T06:58:25;100870.16;;;7.67;74.24
52651;BME280;38537;47.226;39.702;2023-01-04T07:00:54;100879.59;;;7.61;73.94
52651;BME280;38537;47.226;39.702;2023-01-04T07:03:22;100840.13;;;7.43;74.37
52651;BME280;38537;47.226;39.702;2023-01-04T07:05:49;100868.50;;;7.66;74.18
52651;BME280;38537;47.226;39.702;2023-01-04T07:08:16;100876.25;;;7.64;74.01
52651;BME280;38537;47.226;39.702;2023-01-04T07:10:43;100869.03;;;7.52;74.04
52651;BME280;38537;47.226;39.702;2023-01-04T07:13:11;100857.63;;;7.59;74.17
52651;BME280;38537;47.226;39.702;2023-01-04T07:15:38;100879.88;;;7.59;73.89
52651;BME280;38537;47.226;39.702;2023-01-04T07:18:08;100879.88;;;7.69;73.86
52651;BME280;38537;47.226;39.702;2023-01-04T07:20:36;100882.41;;;7.76;73.50
52651;BME280;38537;47.226;39.702;2023-01-04T07:23:05;100876.31;;;7.79;73.69
52651;BME280;38537;47.226;39.702;2023-01-04T07:25:33;100891.28;;;7.68;73.62
52651;BME280;38537;47.226;39.702;2023-01-04T07:28:00;100884.06;;;7.56;73.71
52651;BME280;38537;47.226;39.702;2023-01-04T07:30:27;100898.53;;;7.74;73.91
52651;BME280;38537;47.226;39.702;2023-01-04T07:32:55;100894.94;;;7.78;73.43
52651;BME280;38537;47.226;39.702;2023-01-04T07:35:23;100879.91;;;7.79;73.20
52651;BME280;38537;47.226;39.702;2023-01-04T07:37:51;100879.63;;;7.76;73.09
52651;BME280;38537;47.226;39.702;2023-01-04T07:40:25;100902.41;;;7.88;73.04
52651;BME280;38537;47.226;39.702;2023-01-04T07:42:53;100889.88;;;7.80;72.75
52651;BME280;38537;47.226;39.702;2023-01-04T07:45:23;100900.19;;;7.75;72.96
52651;BME280;38537;47.226;39.702;2023-01-04T07:47:50;100892.41;;;7.67;73.05
52651;BME280;38537;47.226;39.702;2023-01-04T07:50:18;100889.34;;;7.68;73.01
52651;BME280;38537;47.226;39.702;2023-01-04T07:52:46;100902.13;;;7.84;73.52
52651;BME280;38537;47.226;39.702;2023-01-04T07:55:13;100898.81;;;7.87;73.20
52651;BME280;38537;47.226;39.702;2023-01-04T07:57:42;100893.25;;;7.98;73.08
52651;BME280;38537;47.226;39.702;2023-01-04T08:00:09;100873.22;;;7.96;72.48
52651;BME280;38537;47.226;39.702;2023-01-04T08:02:40;100897.97;;;8.17;72.17
52651;BME280;38537;47.226;39.702;2023-01-04T08:05:07;100902.44;;;8.18;72.20
52651;BME280;38537;47.226;39.702;2023-01-04T08:07:35;100875.16;;;8.10;71.60
52651;BME280;38537;47.226;39.702;2023-01-04T08:10:02;100887.69;;;8.13;71.84
52651;BME280;38537;47.226;39.702;2023-01-04T08:12:30;100891.28;;;8.08;71.66
52651;BME280;38537;47.226;39.702;2023-01-04T08:14:57;100882.94;;;8.13;70.99
52651;BME280;38537;47.226;39.702;2023-01-04T08:17:24;100872.63;;;8.24;71.71
52651;BME280;38537;47.226;39.702;2023-01-04T08:19:51;100874.06;;;8.42;71.54
52651;BME280;38537;47.226;39.702;2023-01-04T08:22:19;100874.00;;;8.57;70.92
52651;BME280;38537;47.226;39.702;2023-01-04T08:24:46;100858.97;;;8.58;69.92
52651;BME280;38537;47.226;39.702;2023-01-04T08:27:13;100869.25;;;8.63;69.70
52651;BME280;38537;47.226;39.702;2023-01-04T08:29:40;100867.59;;;8.56;69.64
52651;BME280;38537;47.226;39.702;2023-01-04T08:32:08;100853.41;;;8.48;69.92
52651;BME280;38537;47.226;39.702;2023-01-04T08:34:35;100875.94;;;8.56;70.05
52651;BME280;38537;47.226;39.702;2023-01-04T08:37:02;100860.38;;;8.45;69.32
52651;BME280;38537;47.226;39.702;2023-01-04T08:39:29;100856.78;;;8.40;69.49
52651;BME280;38537;47.226;39.702;2023-01-04T08:42:02;100852.34;;;8.44;69.58
52651;BME280;38537;47.226;39.702;2023-01-04T08:44:46;100846.72;;;8.49;69.83
52651;BME280;38537;47.226;39.702;2023-01-04T08:47:13;100881.78;;;8.60;69.26
52651;BME280;38537;47.226;39.702;2023-01-04T08:49:40;100859.81;;;8.53;69.04
52651;BME280;38537;47.226;39.702;2023-01-04T08:52:08;100865.38;;;8.58;68.73
52651;BME280;38537;47.226;39.702;2023-01-04T08:54:35;100849.53;;;8.49;68.76
52651;BME280;38537;47.226;39.702;2023-01-04T08:57:03;100839.22;;;8.54;68.98
52651;BME280;38537;47.226;39.702;2023-01-04T08:59:31;100871.22;;;8.52;68.65
52651;BME280;38537;47.226;39.702;2023-01-04T09:01:58;100856.19;;;8.53;68.86
52651;BME280;38537;47.226;39.702;2023-01-04T09:04:31;100846.72;;;8.54;68.65
52651;BME280;38537;47.226;39.702;2023-01-04T09:06:59;100826.16;;;8.45;68.73
52651;BME280;38537;47.226;39.702;2023-01-04T09:09:26;100855.91;;;8.59;68.67
52651;BME280;38537;47.226;39.702;2023-01-04T09:11:56;100853.41;;;8.58;68.73
52651;BME280;38537;47.226;39.702;2023-01-04T09:14:23;100843.66;;;8.55;68.58
52651;BME280;38537;47.226;39.702;2023-01-04T09:16:50;100846.19;;;8.52;68.76
52651;BME280;38537;47.226;39.702;2023-01-04T09:19:17;100832.88;;;8.39;68.77
52651;BME280;38537;47.226;39.702;2023-01-04T09:21:48;100847.56;;;8.49;68.86
52651;BME280;38537;47.226;39.702;2023-01-04T09:24:16;100847.03;;;8.47;69.00
52651;BME280;38537;47.226;39.702;2023-01-04T09:26:44;100850.34;;;8.49;68.57
52651;BME280;38537;47.226;39.702;2023-01-04T09:29:13;100843.13;;;8.48;68.71
52651;BME280;38537;47.226;39.702;2023-01-04T09:31:40;100844.00;;;8.39;69.04
52651;BME280;38537;47.226;39.702;2023-01-04T09:34:08;100842.28;;;8.48;68.97
52651;BME280;38537;47.226;39.702;2023-01-04T09:36:42;100819.75;;;8.49;68.66
52651;BME280;38537;47.226;39.702;2023-01-04T09:39:10;100826.69;;;8.57;68.44
52651;BME280;38537;47.226;39.702;2023-01-04T09:47:55;100827.72;;;8.76;67.69
52651;BME280;38537;47.226;39.702;2023-01-04T09:50:26;100833.25;;;8.86;67.71
52651;BME280;38537;47.226;39.702;2023-01-04T09:55:39;100812.44;;;8.69;67.76
52651;BME280;38537;47.226;39.702;2023-01-04T09:58:21;100831.06;;;8.78;67.37
52651;BME280;38537;47.226;39.702;2023-01-04T10:01:01;100821.31;;;8.76;67.31
52651;BME280;38537;47.226;39.702;2023-01-04T10:06:05;100810.53;;;8.64;66.75
52651;BME280;38537;47.226;39.702;2023-01-04T10:08:33;100835.56;;;8.64;66.44
52651;BME280;38537;47.226;39.702;2023-01-04T10:13:54;100823.91;;;8.47;67.11
52651;BME280;38537;47.226;39.702;2023-01-04T10:33:14;100814.53;;;8.22;66.14
52651;BME280;38537;47.226;39.702;2023-01-04T10:35:43;100802.84;;;8.15;66.44
52651;BME280;38537;47.226;39.702;2023-01-04T10:38:17;100803.63;;;8.26;66.01
52651;BME280;38537;47.226;39.702;2023-01-04T10:40:47;100806.69;;;8.30;66.08
52651;BME280;38537;47.226;39.702;2023-01-04T10:46:39;100793.63;;;8.35;66.17
52651;BME280;38537;47.226;39.702;2023-01-04T10:49:15;100802.53;;;8.42;66.03
52651;BME280;38537;47.226;39.702;2023-01-04T10:52:02;100789.16;;;8.44;65.72
52651;BME280;38537;47.226;39.702;2023-01-04T10:55:09;100816.38;;;8.57;64.64
52651;BME280;38537;47.226;39.702;2023-01-04T10:57:39;100810.56;;;8.49;63.82
52651;BME280;38537;47.226;39.702;2023-01-04T11:00:28;100801.09;;;8.45;63.07
52651;BME280;38537;47.226;39.702;2023-01-04T11:03:06;100807.22;;;8.47;63.57
52651;BME280;38537;47.226;39.702;2023-01-04T11:05:59;100807.50;;;8.50;63.35
52651;BME280;38537;47.226;39.702;2023-01-04T11:08:30;100801.66;;;8.52;63.85
52651;BME280;38537;47.226;39.702;2023-01-04T11:11:08;100803.03;;;8.54;63.32
52651;BME280;38537;47.226;39.702;2023-01-04T11:13:37;100808.31;;;8.51;62.62
52651;BME280;38537;47.226;39.702;2023-01-04T11:16:05;100796.09;;;8.47;62.41
52651;BME280;38537;47.226;39.702;2023-01-04T11:18:35;100806.38;;;8.51;61.68
52651;BME280;38537;47.226;39.702;2023-01-04T11:21:07;100805.25;;;8.52;61.54
52651;BME280;38537;47.226;39.702;2023-01-04T11:23:38;100807.47;;;8.55;62.13
52651;BME280;38537;47.226;39.702;2023-01-04T11:26:14;100789.41;;;8.53;60.95
52651;BME280;38537;47.226;39.702;2023-01-04T11:29:04;100781.91;;;8.48;60.84
52651;BME280;38537;47.226;39.702;2023-01-04T11:34:51;100806.63;;;8.65;60.69
52651;BME280;38537;47.226;39.702;2023-01-04T11:37:39;100787.72;;;8.57;60.29
52651;BME280;38537;47.226;39.702;2023-01-04T11:42:45;100786.00;;;8.66;60.32
52651;BME280;38537;47.226;39.702;2023-01-04T11:45:23;100809.34;;;8.75;59.91
52651;BME280;38537;47.226;39.702;2023-01-04T11:47:54;100814.09;;;8.75;60.12
52651;BME280;38537;47.226;39.702;2023-01-04T11:50:41;100799.88;;;8.76;59.68
52651;BME280;38537;47.226;39.702;2023-01-04T11:53:29;100813.78;;;8.76;58.69
52651;BME280;38537;47.226;39.702;2023-01-04T11:56:21;100811.34;;;8.65;58.92
52651;BME280;38537;47.226;39.702;2023-01-04T12:01:34;100803.31;;;8.58;59.76
52651;BME280;38537;47.226;39.702;2023-01-04T12:04:23;100784.69;;;8.48;59.31
52651;BME280;38537;47.226;39.702;2023-01-04T12:07:01;100790.78;;;8.61;59.23
52651;BME280;38537;47.226;39.702;2023-01-04T12:09:31;100792.72;;;8.60;59.40
52651;BME280;38537;47.226;39.702;2023-01-04T12:11:59;100805.53;;;8.56;59.43
52651;BME280;38537;47.226;39.702;2023-01-04T12:14:31;100801.38;;;8.48;59.49
52651;BME280;38537;47.226;39.702;2023-01-04T12:19:49;100795.81;;;8.48;59.31
52651;BME280;38537;47.226;39.702;2023-01-04T12:22:40;100822.78;;;8.63;58.83
52651;BME280;38537;47.226;39.702;2023-01-04T12:27:50;100804.06;;;8.69;59.77
52651;BME280;38537;47.226;39.702;2023-01-04T12:36:14;100817.78;;;8.60;58.71
52651;BME280;38537;47.226;39.702;2023-01-04T12:41:24;100825.28;;;8.59;59.29
52651;BME280;38537;47.226;39.702;2023-01-04T13:01:26;100813.34;;;8.54;59.12
52651;BME280;38537;47.226;39.702;2023-01-04T13:04:25;100818.91;;;8.49;58.80
52651;BME280;38537;47.226;39.702;2023-01-04T13:06:49;100818.94;;;8.44;59.06
52651;BME280;38537;47.226;39.702;2023-01-04T13:09:20;100823.91;;;8.52;59.22
52651;BME280;38537;47.226;39.702;2023-01-04T13:14:31;100814.72;;;8.51;58.64
52651;BME280;38537;47.226;39.702;2023-01-04T13:17:07;100816.38;;;8.57;58.98
52651;BME280;38537;47.226;39.702;2023-01-04T13:19:39;100824.47;;;8.54;59.21
52651;BME280;38537;47.226;39.702;2023-01-04T13:22:25;100828.38;;;8.48;58.65
52651;BME280;38537;47.226;39.702;2023-01-04T13:24:57;100823.94;;;8.32;59.33
52651;BME280;38537;47.226;39.702;2023-01-04T13:27:26;100832.84;;;8.29;59.73
52651;BME280;38537;47.226;39.702;2023-01-04T13:29:53;100822.28;;;8.25;59.91
52651;BME280;38537;47.226;39.702;2023-01-04T13:32:27;100835.09;;;8.37;59.92
52651;BME280;38537;47.226;39.702;2023-01-04T13:35:12;100835.09;;;8.42;59.23
52651;BME280;38537;47.226;39.702;2023-01-04T13:37:46;100831.22;;;8.22;59.20
52651;BME280;38537;47.226;39.702;2023-01-04T13:40:31;100823.09;;;8.26;59.90
52651;BME280;38537;47.226;39.702;2023-01-04T13:46:26;100835.09;;;8.16;60.01
52651;BME280;38537;47.226;39.702;2023-01-04T13:48:50;100830.66;;;8.20;60.21
52651;BME280;38537;47.226;39.702;2023-01-04T13:51:32;100823.16;;;8.16;59.92
52651;BME280;38537;47.226;39.702;2023-01-04T13:54:19;100832.88;;;8.13;60.20
52651;BME280;38537;47.226;39.702;2023-01-04T13:56:47;100828.47;;;7.87;60.21
52651;BME280;38537;47.226;39.702;2023-01-04T13:59:21;100830.97;;;7.83;60.53
52651;BME280;38537;47.226;39.702;2023-01-04T14:01:49;100839.03;;;7.85;60.94
52651;BME280;38537;47.226;39.702;2023-01-04T14:04:26;100843.19;;;7.87;60.66
52651;BME280;38537;47.226;39.702;2023-01-04T14:06:58;100829.03;;;7.69;60.37
52651;BME280;38537;47.226;39.702;2023-01-04T14:09:34;100851.28;;;7.74;60.06
52651;BME280;38537;47.226;39.702;2023-01-04T14:12:38;100857.94;;;7.83;60.08
52651;BME280;38537;47.226;39.702;2023-01-04T14:15:20;100849.84;;;7.61;59.71
52651;BME280;38537;47.226;39.702;2023-01-04T14:17:51;100839.53;;;7.36;59.81
52651;BME280;38537;47.226;39.702;2023-01-04T14:41:22;100858.66;;;7.07;59.67
52651;BME280;38537;47.226;39.702;2023-01-04T14:44:00;100868.38;;;7.15;60.16
52651;BME280;38537;47.226;39.702;2023-01-04T14:46:30;100867.25;;;7.06;60.03
52651;BME280;38537;47.226;39.702;2023-01-04T14:48:58;100871.72;;;7.07;60.08
52651;BME280;38537;47.226;39.702;2023-01-04T14:51:47;100867.28;;;7.16;59.96
52651;BME280;38537;47.226;39.702;2023-01-04T14:54:16;100861.69;;;7.01;59.92
52651;BME280;38537;47.226;39.702;2023-01-04T14:56:55;100882.00;;;7.16;59.94
52651;BME280;38537;47.226;39.702;2023-01-04T14:59:23;100878.31;;;6.96;59.71
52651;BME280;38537;47.226;39.702;2023-01-04T15:01:53;100881.66;;;6.93;60.29
52651;BME280;38537;47.226;39.702;2023-01-04T15:04:20;100893.88;;;6.92;60.52
52651;BME280;38537;47.226;39.702;2023-01-04T15:06:56;100892.47;;;6.89;60.77
52651;BME280;38537;47.226;39.702;2023-01-04T15:09:25;100883.03;;;6.95;60.81
52651;BME280;38537;47.226;39.702;2023-01-04T15:11:53;100889.16;;;6.97;60.45
52651;BME280;38537;47.226;39.702;2023-01-04T15:14:21;100879.97;;;6.86;60.97
52651;BME280;38537;47.226;39.702;2023-01-04T15:16:49;100890.81;;;6.88;60.76
52651;BME280;38537;47.226;39.702;2023-01-04T15:19:16;100887.69;;;6.79;61.53
52651;BME280;38537;47.226;39.702;2023-01-04T15:21:43;100874.25;;;6.56;61.45
52651;BME280;38537;47.226;39.702;2023-01-04T15:24:11;100886.19;;;6.57;61.51
52651;BME280;38537;47.226;39.702;2023-01-04T15:26:39;100901.16;;;6.56;62.03
52651;BME280;38537;47.226;39.702;2023-01-04T15:29:08;100909.75;;;6.54;62.05
52651;BME280;38537;47.226;39.702;2023-01-04T15:31:35;100885.28;;;6.41;62.04
52651;BME280;38537;47.226;39.702;2023-01-04T15:34:07;100903.94;;;6.56;62.03
52651;BME280;38537;47.226;39.702;2023-01-04T15:36:36;100913.94;;;6.57;61.93